createdAt,value
2018-06-23T17:30:05.200Z,92.20
2018-06-23T17:32:34.842Z,92.70
2018-06-23T17:35:04.677Z,92.70
2018-06-23T17:37:33.289Z,93.10
2018-06-23T17:40:03.201Z,93.40
2018-06-23T17:42:32.821Z,93.20
2018-06-23T17:45:04.422Z,92.90
2018-06-23T17:47:35.214Z,93.00
2018-06-23T17:50:05.304Z,93.20
2018-06-23T17:52:34.193Z,93.10
2018-06-23T17:55:02.895Z,93.30
2018-06-23T17:57:32.812Z,93.20
2018-06-23T18:00:01.566Z,93.30
2018-06-23T18:02:33.979Z,93.30
2018-06-23T18:05:03.202Z,93.50
2018-06-23T18:10:07.029Z,93.40
2018-06-23T18:12:37.977Z,93.80
2018-06-23T18:15:07.709Z,93.50
2018-06-23T18:17:40.167Z,93.50
2018-06-23T18:20:09.919Z,93.80
2018-06-23T18:22:43.361Z,93.90
2018-06-23T18:25:12.876Z,94.10
2018-06-23T18:27:47.463Z,94.30
2018-06-23T18:30:17.257Z,94.50
2018-06-23T18:32:46.709Z,94.70
2018-06-23T18:35:15.968Z,95.00
2018-06-23T18:37:58.400Z,94.80
2018-06-23T18:40:28.175Z,94.80
2018-06-23T18:42:57.809Z,95.00
2018-06-23T18:47:56.549Z,95.60
2018-06-23T18:50:26.364Z,96.00
2018-06-23T18:52:54.906Z,96.10
2018-06-23T18:55:25.591Z,96.20
2018-06-23T18:58:01.518Z,96.30
2018-06-23T19:00:30.978Z,96.30
2018-06-23T19:03:01.614Z,96.40
2018-06-23T19:08:02.402Z,96.50
2018-06-23T19:10:31.553Z,96.50
2018-06-23T19:13:13.587Z,96.50
2018-06-23T19:18:12.264Z,96.50
2018-06-23T19:20:42.210Z,97.40
2018-06-23T19:23:13.312Z,96.50
2018-06-23T19:25:45.009Z,96.40
2018-06-23T19:28:20.329Z,96.30
2018-06-23T19:30:55.925Z,96.40
2018-06-23T19:33:26.912Z,96.40
2018-06-23T19:35:56.713Z,96.40
2018-06-23T19:38:32.390Z,96.40
2018-06-23T19:41:03.172Z,96.60
2018-06-23T19:43:32.605Z,96.50
2018-06-23T19:46:03.110Z,96.70
2018-06-23T19:48:32.954Z,96.80
2018-06-23T19:51:03.333Z,96.60
2018-06-23T19:53:32.058Z,96.70
2018-06-23T19:56:02.445Z,97.00
2018-06-23T19:58:37.653Z,97.20
2018-06-23T20:03:40.648Z,97.40
2018-06-23T20:06:10.713Z,97.50
2018-06-23T20:08:42.879Z,97.70
2018-06-23T20:11:14.596Z,97.70
2018-06-23T20:13:43.790Z,97.90
2018-06-23T20:16:14.308Z,97.90
2018-06-23T20:18:43.738Z,98.60
2018-06-23T20:21:17.923Z,98.30
2018-06-23T20:23:48.324Z,98.50
2018-06-23T20:26:17.170Z,98.40
2018-06-23T20:28:47.169Z,98.80
2018-06-23T20:31:17.152Z,98.90
2018-06-23T20:33:50.421Z,99.10
2018-06-23T20:36:25.324Z,99.40
2018-06-23T20:39:05.086Z,99.60
2018-06-23T20:41:41.229Z,99.60
2018-06-23T20:44:14.773Z,99.60
2018-06-23T20:46:45.295Z,99.70
2018-06-23T20:49:15.762Z,99.90
2018-06-23T20:51:48.400Z,99.90
2018-06-23T20:54:19.348Z,99.90
2018-06-23T20:56:49.089Z,99.90
2018-06-23T20:59:17.711Z,99.90
2018-06-23T21:01:50.443Z,99.90
2018-06-23T21:04:19.371Z,99.90
2018-06-23T21:06:53.123Z,99.90
2018-06-23T21:09:24.012Z,99.90
2018-06-23T21:11:56.605Z,99.90
2018-06-23T21:14:25.645Z,99.90
2018-06-23T21:17:00.413Z,99.90
2018-06-23T21:19:29.221Z,99.90
2018-06-23T21:22:00.535Z,99.90
2018-06-23T21:24:30.734Z,99.90
2018-06-23T21:27:02.837Z,99.90
2018-06-23T21:32:14.437Z,99.90
2018-06-23T21:37:13.170Z,99.90
2018-06-23T21:39:42.191Z,99.90
2018-06-23T21:42:14.644Z,99.90
2018-06-23T21:44:46.303Z,99.90
2018-06-23T21:47:16.241Z,99.90
2018-06-23T21:49:46.457Z,99.90
2018-06-23T21:52:16.740Z,99.90
2018-06-23T21:54:46.551Z,99.90
2018-06-23T21:57:16.963Z,99.90
2018-06-23T21:59:45.615Z,99.90
2018-06-23T22:04:53.152Z,99.90
2018-06-23T22:07:22.770Z,99.90
2018-06-23T22:12:30.578Z,99.90
2018-06-23T22:17:30.277Z,99.90
2018-06-23T22:20:00.645Z,99.90
2018-06-23T22:22:30.648Z,99.90
2018-06-23T22:24:59.518Z,99.90
2018-06-23T22:27:29.217Z,99.90
2018-06-23T22:29:58.485Z,99.90
2018-06-23T22:32:30.570Z,99.90
2018-06-23T22:34:59.651Z,99.90
2018-06-23T22:37:34.690Z,99.90
2018-06-23T22:40:04.622Z,99.90
2018-06-23T22:42:34.194Z,99.90
2018-06-23T22:45:04.450Z,99.90
2018-06-23T22:47:36.437Z,99.90
2018-06-23T22:50:07.361Z,99.90
2018-06-23T22:52:38.692Z,99.90
2018-06-23T22:55:09.233Z,99.90
2018-06-23T22:57:40.494Z,99.90
2018-06-23T23:00:13.317Z,99.90
2018-06-23T23:02:43.130Z,99.90
2018-06-23T23:05:12.088Z,99.90
2018-06-23T23:07:44.997Z,99.90
2018-06-23T23:10:14.061Z,99.90
2018-06-23T23:12:46.999Z,99.90
2018-06-23T23:15:16.111Z,99.90
2018-06-23T23:17:49.278Z,99.90
2018-06-23T23:20:18.442Z,99.90
2018-06-23T23:23:01.058Z,99.90
2018-06-23T23:28:00.679Z,99.90
2018-06-23T23:30:29.649Z,99.90
2018-06-23T23:32:59.795Z,99.90
2018-06-23T23:35:30.294Z,99.90
2018-06-23T23:37:59.594Z,99.90
2018-06-23T23:40:28.668Z,99.90
2018-06-23T23:43:00.933Z,99.90
2018-06-23T23:48:11.063Z,99.90
2018-06-23T23:50:41.215Z,99.90
2018-06-23T23:53:10.380Z,99.90
2018-06-23T23:55:39.010Z,99.90
